Common Venture — SVBL4 — position and weather

sailwx.info

Track history (hours):
 
Tides and Currents Weather Stations Pressure Air Temp Water Temp Dewpoint Dewpoint Depression Visibility Wind Speed Wind Dir Waves Ship Positions

Common Venture

Last reported at 2017-Jun-20 20:10 UTC. Time now 2017-Jun-25 14:07 UTC.
Position N 37°50' W 029°38'.

Length 190 m; draft 12.4 m.

Type: Cargo ship. MMSI: 241155000.

Date/timePositionNaut miles runAvg speedWind from/ knotsBaromVisibWave heightAir tempDewpointWater temp
2017-Jun-20 20:10N 37°50' W 029°38'313.3
2017-Jun-20 19:58N 37°50' W 029°34'712.9
2017-Jun-20 19:26N 37°51' W 029°25'612.9
2017-Jun-20 19:00N 37°51' W 029°18'612.8
2017-Jun-20 18:30N 37°51' W 029°10'612.5
2017-Jun-20 18:00N 37°52' W 029°03'612.9
2017-Jun-20 17:30N 37°52' W 028°54'713.1
2017-Jun-20 17:00N 37°53' W 028°46'712.7
2017-Jun-20 16:29N 37°53' W 028°38'613.0
2017-Jun-20 16:00N 37°53' W 028°30'612.8
2017-Jun-20 15:30N 37°54' W 028°22'612.6
2017-Jun-20 15:00N 37°54' W 028°14'1313.1
2017-Jun-20 14:00N 37°55' W 027°57'612.6
2017-Jun-20 13:30N 37°55' W 027°49'612.3
2017-Jun-20 13:00N 37°56' W 027°41'612.5
2017-Jun-20 12:30N 37°56' W 027°34'612.0
2017-Jun-20 12:00N 37°56' W 027°26'712.0
2017-Jun-20 11:23N 37°57' W 027°17'512.1
2017-Jun-20 11:00N 37°57' W 027°11'611.7
2017-Jun-20 10:31N 37°57' W 027°03'611.7
2017-Jun-20 10:01N 37°57' W 026°56'612.0
2017-Jun-20 09:30N 37°58' W 026°48'612.0
2017-Jun-20 09:00N 37°58' W 026°41'612.7
2017-Jun-20 08:30N 37°59' W 026°33'612.5
2017-Jun-20 08:00N 37°59' W 026°25'612.1
2017-Jun-20 07:30N 37°59' W 026°17'611.6
2017-Jun-20 07:01N 37°59' W 026°10'611.7
2017-Jun-20 06:31N 37°59' W 026°02'612.6
2017-Jun-20 06:00N 37°58' W 025°54'612.5
2017-Jun-20 05:30N 37°58' W 025°46'612.4
2017-Jun-20 05:00N 37°57' W 025°39'612.4
2017-Jun-20 04:30N 37°57' W 025°31'612.0
2017-Jun-20 04:00N 37°56' W 025°23'612.1
2017-Jun-20 03:30N 37°55' W 025°16'611.7
2017-Jun-20 03:00N 37°54' W 025°08'611.8
2017-Jun-20 02:30N 37°53' W 025°01'611.8
2017-Jun-20 02:00N 37°53' W 024°54'611.9
2017-Jun-20 01:30N 37°52' W 024°46'611.9
2017-Jun-20 01:01N 37°51' W 024°39'611.8
2017-Jun-20 00:30N 37°50' W 024°31'  
2017-Jun-17 00:40N 35°58' W 005°36'211.6
2017-Jun-17 00:30N 35°58' W 005°34'510.7
2017-Jun-17 00:00N 35°59' W 005°27'510.3
2017-Jun-16 23:30N 36°01' W 005°21'612.2
2017-Jun-16 23:00N 36°03' W 005°14'25912.7
2017-Jun-16 02:36N 36°44' E 000°03'112.8
2017-Jun-16 02:30N 36°44' E 000°05'612.7
2017-Jun-16 02:00N 36°45' E 000°13'612.5
2017-Jun-16 01:29N 36°46' E 000°21'1812.6
2017-Jun-16 00:05N 36°49' E 000°43'112.9
2017-Jun-16 00:00N 36°49' E 000°44'612.8
2017-Jun-15 23:30N 36°50' E 000°52'713.1
2017-Jun-15 23:00N 36°51' E 000°60'613.1
2017-Jun-15 22:31N 36°52' E 001°08'713.2
2017-Jun-15 22:01N 36°54' E 001°16'1213.7
2017-Jun-15 21:09N 36°55' E 001°30'213.8
2017-Jun-15 21:01N 36°56' E 001°33'813.7
2017-Jun-15 20:27N 36°57' E 001°42'613.7
2017-Jun-15 20:00N 36°58' E 001°50'1313.6
2017-Jun-15 19:03N 36°60' E 002°06'113.5
2017-Jun-15 18:58N 36°60' E 002°07'613.6
2017-Jun-15 18:30N 37°01' E 002°15'713.6
2017-Jun-15 18:00N 37°02' E 002°23'713.6
2017-Jun-15 17:30N 37°03' E 002°32'3313.3
2017-Jun-15 15:00N 37°08' E 003°13'2412.9
2017-Jun-15 13:06N 37°11' E 003°43'212.9
2017-Jun-15 12:59N 37°11' E 003°45'712.6
2017-Jun-15 12:26N 37°12' E 003°54'512.6
2017-Jun-15 12:00N 37°12' E 004°01'612.9
2017-Jun-15 11:30N 37°13' E 004°09'5813.0
2017-Jun-15 07:03N 37°20' E 005°21'913.1
2017-Jun-15 06:21N 37°21' E 005°32'513.1
2017-Jun-15 06:00N 37°21' E 005°38'713.2
2017-Jun-15 05:30N 37°22' E 005°46'713.1
2017-Jun-15 05:00N 37°23' E 005°55'813.1
2017-Jun-15 04:23N 37°24' E 006°05'9213.0
2017-Jun-14 21:19N 37°34' E 007°60'612.9
2017-Jun-14 20:50N 37°34' E 008°07'613.3
2017-Jun-14 20:23N 37°35' E 008°15'1113.8
2017-Jun-14 19:36N 37°35' E 008°29'1813.5
2017-Jun-14 18:17N 37°38' E 008°51'413.0
2017-Jun-14 17:59N 37°37' E 008°56'713.1
2017-Jun-14 17:28N 37°37' E 009°04'713.1
2017-Jun-14 16:57N 37°37' E 009°13'1913.2
2017-Jun-14 15:30N 37°38' E 009°37'713.1
2017-Jun-14 14:59N 37°38' E 009°45'1313.0
2017-Jun-14 13:59N 37°39' E 010°02'613.0
2017-Jun-14 13:30N 37°39' E 010°10'612.8
2017-Jun-14 13:00N 37°38' E 010°18'712.8
2017-Jun-14 12:29N 37°37' E 010°26'612.7
2017-Jun-14 12:00N 37°36' E 010°34'612.4
2017-Jun-14 11:30N 37°34' E 010°41'612.6
2017-Jun-14 11:00N 37°33' E 010°49'612.6
2017-Jun-14 10:30N 37°31' E 010°57'6413.0
2017-Jun-14 05:35N 37°05' E 012°10'112.7
2017-Jun-14 05:30N 37°04' E 012°11'1312.5
2017-Jun-14 04:27N 36°59' E 012°26'613.0
2017-Jun-14 04:01N 36°57' E 012°33'712.8
2017-Jun-14 03:29N 36°55' E 012°41'713.0
2017-Jun-14 02:54N 36°53' E 012°50'513.1
2017-Jun-14 02:30N 36°51' E 012°56'713.5
2017-Jun-14 02:00N 36°49' E 013°04'813.6
2017-Jun-14 01:25N 36°47' E 013°13'613.6
2017-Jun-14 00:59N 36°45' E 013°20'613.3
2017-Jun-14 00:30N 36°43' E 013°28'612.9
2017-Jun-14 00:00N 36°41' E 013°36'3412.7
2017-Jun-13 21:21N 36°31' E 014°16'412.6
2017-Jun-13 21:00N 36°30' E 014°21'612.6
2017-Jun-13 20:30N 36°29' E 014°29'612.7
2017-Jun-13 20:01N 36°27' E 014°36'612.7
2017-Jun-13 19:30N 36°27' E 014°44'612.5
2017-Jun-13 19:00N 36°27' E 014°52'712.7
2017-Jun-13 18:28N 36°27' E 015°01'  
Track history (hours):
 
Tides and Currents Weather Stations Pressure Air Temp Water Temp Dewpoint Dewpoint Depression Visibility Wind Speed Wind Dir Waves Ship Positions

Common Venture

Last reported at 2017-Jun-20 20:10 UTC. Time now 2017-Jun-25 14:07 UTC.
Position N 37°50' W 029°38'.

Length 190 m; draft 12.4 m.

Type: Cargo ship. MMSI: 241155000.

Date/timePositionNaut miles runAvg speedWind from/ knotsBaromVisibWave heightAir tempDewpointWater temp
2017-Jun-20 20:10N 37°50' W 029°38'313.3
2017-Jun-20 19:58N 37°50' W 029°34'712.9
2017-Jun-20 19:26N 37°51' W 029°25'612.9
2017-Jun-20 19:00N 37°51' W 029°18'612.8
2017-Jun-20 18:30N 37°51' W 029°10'612.5
2017-Jun-20 18:00N 37°52' W 029°03'612.9
2017-Jun-20 17:30N 37°52' W 028°54'713.1
2017-Jun-20 17:00N 37°53' W 028°46'712.7
2017-Jun-20 16:29N 37°53' W 028°38'613.0
2017-Jun-20 16:00N 37°53' W 028°30'612.8
2017-Jun-20 15:30N 37°54' W 028°22'612.6
2017-Jun-20 15:00N 37°54' W 028°14'1313.1
2017-Jun-20 14:00N 37°55' W 027°57'612.6
2017-Jun-20 13:30N 37°55' W 027°49'612.3
2017-Jun-20 13:00N 37°56' W 027°41'612.5
2017-Jun-20 12:30N 37°56' W 027°34'612.0
2017-Jun-20 12:00N 37°56' W 027°26'712.0
2017-Jun-20 11:23N 37°57' W 027°17'512.1
2017-Jun-20 11:00N 37°57' W 027°11'611.7
2017-Jun-20 10:31N 37°57' W 027°03'611.7
2017-Jun-20 10:01N 37°57' W 026°56'612.0
2017-Jun-20 09:30N 37°58' W 026°48'612.0
2017-Jun-20 09:00N 37°58' W 026°41'612.7
2017-Jun-20 08:30N 37°59' W 026°33'612.5
2017-Jun-20 08:00N 37°59' W 026°25'612.1
2017-Jun-20 07:30N 37°59' W 026°17'611.6
2017-Jun-20 07:01N 37°59' W 026°10'611.7
2017-Jun-20 06:31N 37°59' W 026°02'612.6
2017-Jun-20 06:00N 37°58' W 025°54'612.5
2017-Jun-20 05:30N 37°58' W 025°46'612.4
2017-Jun-20 05:00N 37°57' W 025°39'612.4
2017-Jun-20 04:30N 37°57' W 025°31'612.0
2017-Jun-20 04:00N 37°56' W 025°23'612.1
2017-Jun-20 03:30N 37°55' W 025°16'611.7
2017-Jun-20 03:00N 37°54' W 025°08'611.8
2017-Jun-20 02:30N 37°53' W 025°01'611.8
2017-Jun-20 02:00N 37°53' W 024°54'611.9
2017-Jun-20 01:30N 37°52' W 024°46'611.9
2017-Jun-20 01:01N 37°51' W 024°39'611.8
2017-Jun-20 00:30N 37°50' W 024°31'  
2017-Jun-17 00:40N 35°58' W 005°36'211.6
2017-Jun-17 00:30N 35°58' W 005°34'510.7
2017-Jun-17 00:00N 35°59' W 005°27'510.3
2017-Jun-16 23:30N 36°01' W 005°21'612.2
2017-Jun-16 23:00N 36°03' W 005°14'25912.7
2017-Jun-16 02:36N 36°44' E 000°03'112.8
2017-Jun-16 02:30N 36°44' E 000°05'612.7
2017-Jun-16 02:00N 36°45' E 000°13'612.5
2017-Jun-16 01:29N 36°46' E 000°21'1812.6
2017-Jun-16 00:05N 36°49' E 000°43'112.9
2017-Jun-16 00:00N 36°49' E 000°44'612.8
2017-Jun-15 23:30N 36°50' E 000°52'713.1
2017-Jun-15 23:00N 36°51' E 000°60'613.1
2017-Jun-15 22:31N 36°52' E 001°08'713.2
2017-Jun-15 22:01N 36°54' E 001°16'1213.7
2017-Jun-15 21:09N 36°55' E 001°30'213.8
2017-Jun-15 21:01N 36°56' E 001°33'813.7
2017-Jun-15 20:27N 36°57' E 001°42'613.7
2017-Jun-15 20:00N 36°58' E 001°50'1313.6
2017-Jun-15 19:03N 36°60' E 002°06'113.5
2017-Jun-15 18:58N 36°60' E 002°07'613.6
2017-Jun-15 18:30N 37°01' E 002°15'713.6
2017-Jun-15 18:00N 37°02' E 002°23'713.6
2017-Jun-15 17:30N 37°03' E 002°32'3313.3
2017-Jun-15 15:00N 37°08' E 003°13'2412.9
2017-Jun-15 13:06N 37°11' E 003°43'212.9
2017-Jun-15 12:59N 37°11' E 003°45'712.6
2017-Jun-15 12:26N 37°12' E 003°54'512.6
2017-Jun-15 12:00N 37°12' E 004°01'612.9
2017-Jun-15 11:30N 37°13' E 004°09'5813.0
2017-Jun-15 07:03N 37°20' E 005°21'913.1
2017-Jun-15 06:21N 37°21' E 005°32'513.1
2017-Jun-15 06:00N 37°21' E 005°38'713.2
2017-Jun-15 05:30N 37°22' E 005°46'713.1
2017-Jun-15 05:00N 37°23' E 005°55'813.1
2017-Jun-15 04:23N 37°24' E 006°05'9213.0
2017-Jun-14 21:19N 37°34' E 007°60'612.9
2017-Jun-14 20:50N 37°34' E 008°07'613.3
2017-Jun-14 20:23N 37°35' E 008°15'1113.8
2017-Jun-14 19:36N 37°35' E 008°29'1813.5
2017-Jun-14 18:17N 37°38' E 008°51'413.0
2017-Jun-14 17:59N 37°37' E 008°56'713.1
2017-Jun-14 17:28N 37°37' E 009°04'713.1
2017-Jun-14 16:57N 37°37' E 009°13'1913.2
2017-Jun-14 15:30N 37°38' E 009°37'713.1
2017-Jun-14 14:59N 37°38' E 009°45'1313.0
2017-Jun-14 13:59N 37°39' E 010°02'613.0
2017-Jun-14 13:30N 37°39' E 010°10'612.8
2017-Jun-14 13:00N 37°38' E 010°18'712.8
2017-Jun-14 12:29N 37°37' E 010°26'612.7
2017-Jun-14 12:00N 37°36' E 010°34'612.4
2017-Jun-14 11:30N 37°34' E 010°41'612.6
2017-Jun-14 11:00N 37°33' E 010°49'612.6
2017-Jun-14 10:30N 37°31' E 010°57'6413.0
2017-Jun-14 05:35N 37°05' E 012°10'112.7
2017-Jun-14 05:30N 37°04' E 012°11'1312.5
2017-Jun-14 04:27N 36°59' E 012°26'613.0
2017-Jun-14 04:01N 36°57' E 012°33'712.8
2017-Jun-14 03:29N 36°55' E 012°41'713.0
2017-Jun-14 02:54N 36°53' E 012°50'513.1
2017-Jun-14 02:30N 36°51' E 012°56'713.5
2017-Jun-14 02:00N 36°49' E 013°04'813.6
2017-Jun-14 01:25N 36°47' E 013°13'613.6
2017-Jun-14 00:59N 36°45' E 013°20'613.3
2017-Jun-14 00:30N 36°43' E 013°28'612.9
2017-Jun-14 00:00N 36°41' E 013°36'3412.7
2017-Jun-13 21:21N 36°31' E 014°16'412.6
2017-Jun-13 21:00N 36°30' E 014°21'612.6
2017-Jun-13 20:30N 36°29' E 014°29'612.7
2017-Jun-13 20:01N 36°27' E 014°36'612.7
2017-Jun-13 19:30N 36°27' E 014°44'612.5
2017-Jun-13 19:00N 36°27' E 014°52'712.7
2017-Jun-13 18:28N 36°27' E 015°01'  

Dump ship's entire track history